Terminal Aerodrome Forecast
Issued by NWS Tulsa, OK

Home | Current Version | Previous Version | Text Only | Print | Product List | Glossary On
Versions: 1 2 3 4 5 6 7 8 9 10 11 12 13 14 15 16 17
947
FTUS44 KTSA 021959 AAA
TAFFSM
TAF AMD
KFSM 021959Z 0220/0318 31009KT P6SM SCT040 OVC060
     FM030400 28007KT P6SM BKN045
     FM031700 33005KT P6SM SCT050=

USA.gov is the U.S. government's official web portal to all federal, state and local government web resources and services.